createdAt,value
2023-03-24T00:00:04.814Z,12.54
2023-03-24T00:02:32.280Z,12.54
2023-03-24T00:04:58.684Z,12.54
2023-03-24T00:07:25.298Z,12.52
2023-03-24T00:09:51.242Z,12.50
2023-03-24T00:12:17.648Z,12.49
2023-03-24T00:14:44.063Z,12.47
2023-03-24T00:17:10.437Z,12.44
2023-03-24T00:19:36.778Z,12.42
2023-03-24T00:22:03.166Z,12.43
2023-03-24T00:24:29.691Z,12.41
2023-03-24T00:26:56.076Z,12.41
2023-03-24T00:29:22.434Z,12.40
2023-03-24T00:31:48.791Z,12.41
2023-03-24T00:34:15.238Z,12.39
2023-03-24T00:36:41.602Z,12.37
2023-03-24T00:39:07.938Z,12.35
2023-03-24T00:41:34.308Z,12.33
2023-03-24T00:44:00.680Z,12.31
2023-03-24T00:46:27.038Z,12.31
2023-03-24T00:48:53.346Z,12.29
2023-03-24T00:51:19.735Z,12.27
2023-03-24T00:53:46.070Z,12.25
2023-03-24T00:56:12.415Z,12.22
2023-03-24T00:58:38.747Z,12.21
2023-03-24T01:01:05.158Z,12.19
2023-03-24T01:03:31.463Z,12.18
2023-03-24T01:05:57.860Z,12.16
2023-03-24T01:08:24.181Z,12.16
2023-03-24T01:10:50.543Z,12.13
2023-03-24T01:13:16.888Z,12.10
2023-03-24T01:15:43.303Z,12.08
2023-03-24T01:18:09.729Z,12.06
2023-03-24T01:20:36.011Z,12.04
2023-03-24T01:23:02.334Z,12.04
2023-03-24T01:25:28.714Z,12.02
2023-03-24T01:27:55.101Z,11.99
2023-03-24T01:30:21.483Z,11.98
2023-03-24T01:32:47.906Z,11.97
2023-03-24T01:35:14.232Z,11.95
2023-03-24T01:37:40.577Z,11.94
2023-03-24T01:40:06.976Z,11.91
2023-03-24T01:42:33.311Z,11.89
2023-03-24T01:44:59.713Z,11.88
2023-03-24T01:47:26.019Z,11.86
2023-03-24T01:49:52.422Z,11.85
2023-03-24T01:52:18.787Z,11.84
2023-03-24T01:54:45.173Z,11.82
2023-03-24T01:57:11.579Z,11.80
2023-03-24T01:59:37.961Z,11.79
2023-03-24T02:02:04.274Z,11.78
2023-03-24T02:04:30.739Z,11.77
2023-03-24T02:06:57.006Z,11.76
2023-03-24T02:09:23.401Z,11.75
2023-03-24T02:11:49.731Z,11.73
2023-03-24T02:14:16.131Z,11.70
2023-03-24T02:16:42.496Z,11.70
2023-03-24T02:19:08.907Z,11.68
2023-03-24T02:21:35.269Z,11.67
2023-03-24T02:24:01.654Z,11.66
2023-03-24T02:26:28.023Z,11.64
2023-03-24T02:28:54.413Z,11.64
2023-03-24T02:31:20.837Z,11.62
2023-03-24T02:33:47.141Z,11.61
2023-03-24T02:36:13.502Z,11.60
2023-03-24T02:38:39.883Z,11.58
2023-03-24T02:41:06.281Z,11.57
2023-03-24T02:43:32.653Z,11.57
2023-03-24T02:45:59.014Z,11.56
2023-03-24T02:48:25.399Z,11.55
2023-03-24T02:50:51.845Z,11.55
2023-03-24T02:53:18.152Z,11.54
2023-03-24T02:55:44.470Z,11.55
2023-03-24T02:58:10.893Z,11.50
2023-03-24T03:00:37.252Z,11.52
2023-03-24T03:03:03.620Z,11.52
2023-03-24T03:05:29.926Z,11.51
2023-03-24T03:07:56.367Z,11.52
2023-03-24T03:10:22.672Z,11.52
2023-03-24T03:12:50.194Z,11.49
2023-03-24T03:15:15.488Z,11.49
2023-03-24T03:17:41.871Z,11.49
2023-03-24T03:20:08.214Z,11.50
2023-03-24T03:22:34.605Z,11.50
2023-03-24T03:25:00.937Z,11.50
2023-03-24T03:27:27.385Z,11.49
2023-03-24T03:29:53.658Z,11.48
2023-03-24T03:32:20.010Z,11.49
2023-03-24T03:34:46.350Z,11.49
2023-03-24T03:37:12.776Z,11.49
2023-03-24T03:39:39.086Z,11.49
2023-03-24T03:42:05.473Z,11.49
2023-03-24T03:44:31.898Z,11.48
2023-03-24T03:46:58.236Z,11.48
2023-03-24T03:49:24.613Z,11.47
2023-03-24T03:51:50.991Z,11.46
2023-03-24T03:54:17.360Z,11.46
2023-03-24T03:56:43.729Z,11.44
2023-03-24T03:59:10.041Z,11.43
2023-03-24T04:01:36.489Z,11.40
2023-03-24T04:04:02.777Z,11.40
2023-03-24T04:06:29.119Z,11.38
2023-03-24T04:08:58.000Z,11.37
2023-03-24T04:11:24.402Z,11.34
2023-03-24T04:13:50.759Z,11.34
2023-03-24T04:16:17.234Z,11.32
2023-03-24T04:18:43.519Z,11.30
2023-03-24T04:21:09.942Z,11.28
2023-03-24T04:23:36.345Z,11.28
2023-03-24T04:26:02.727Z,11.27
2023-03-24T04:28:29.083Z,11.25
2023-03-24T04:30:55.521Z,11.25
2023-03-24T04:33:21.893Z,11.24
2023-03-24T04:35:48.379Z,11.24
2023-03-24T04:38:14.761Z,11.25
2023-03-24T04:40:41.140Z,11.28
2023-03-24T04:43:07.479Z,11.31
2023-03-24T04:45:33.936Z,11.39
2023-03-24T04:48:00.333Z,11.46
2023-03-24T04:50:26.668Z,11.54
2023-03-24T04:52:53.095Z,11.62
2023-03-24T04:55:19.427Z,11.71
2023-03-24T04:57:45.802Z,11.79
2023-03-24T05:00:12.232Z,11.88
2023-03-24T05:02:38.603Z,12.00
2023-03-24T05:05:04.952Z,12.14
2023-03-24T05:07:31.358Z,12.28
2023-03-24T05:09:57.722Z,12.44
2023-03-24T05:12:24.082Z,12.60
2023-03-24T05:14:50.470Z,12.78
2023-03-24T05:17:16.788Z,12.94
2023-03-24T05:19:43.214Z,13.08
2023-03-24T05:22:09.549Z,13.23
2023-03-24T05:24:35.901Z,13.40
2023-03-24T05:27:02.273Z,13.56
2023-03-24T05:29:28.625Z,13.73
2023-03-24T05:31:54.979Z,13.92
2023-03-24T05:34:21.377Z,14.10
2023-03-24T05:36:47.735Z,14.24
2023-03-24T05:39:14.072Z,14.22
2023-03-24T05:41:40.413Z,14.11
2023-03-24T05:44:06.759Z,14.10
2023-03-24T05:46:33.150Z,14.17
2023-03-24T05:48:59.616Z,14.25
2023-03-24T05:51:25.988Z,14.45
2023-03-24T05:53:52.353Z,14.52
2023-03-24T05:56:19.084Z,14.65
2023-03-24T05:58:45.455Z,14.86
2023-03-24T06:01:11.755Z,14.70
2023-03-24T06:03:38.392Z,14.59
2023-03-24T06:06:04.511Z,14.53
2023-03-24T06:08:30.887Z,14.46
2023-03-24T06:10:57.238Z,14.56
2023-03-24T06:13:23.723Z,14.69
2023-03-24T06:15:50.115Z,14.71
2023-03-24T06:18:16.419Z,14.70
2023-03-24T06:20:42.839Z,14.74
2023-03-24T06:23:09.230Z,14.90
2023-03-24T06:25:35.543Z,15.05
2023-03-24T06:28:02.048Z,15.08
2023-03-24T06:30:30.697Z,15.23
2023-03-24T06:32:54.729Z,15.49
2023-03-24T06:35:21.160Z,15.72
2023-03-24T06:37:47.534Z,15.76
2023-03-24T06:40:13.868Z,15.91
2023-03-24T06:42:40.297Z,16.16
2023-03-24T06:45:06.675Z,16.44
2023-03-24T06:47:33.363Z,16.65
2023-03-24T06:49:59.719Z,16.84
2023-03-24T06:52:26.054Z,16.96
2023-03-24T06:54:52.463Z,17.03
2023-03-24T06:57:18.830Z,17.12
2023-03-24T06:59:45.698Z,17.27
2023-03-24T07:02:12.430Z,17.36
2023-03-24T07:04:38.800Z,17.47
2023-03-24T07:07:38.136Z,17.57
2023-03-24T07:09:31.622Z,17.74
2023-03-24T07:11:58.498Z,17.92
2023-03-24T07:14:25.670Z,18.12
2023-03-24T07:16:53.069Z,18.34
2023-03-24T07:19:22.231Z,18.61
2023-03-24T07:21:51.366Z,18.76
2023-03-24T07:24:17.846Z,18.90
2023-03-24T07:26:44.218Z,18.96
2023-03-24T07:29:10.906Z,18.99
2023-03-24T07:31:37.264Z,19.14
2023-03-24T07:34:03.573Z,19.30
2023-03-24T07:36:33.163Z,19.33
2023-03-24T07:38:57.441Z,19.38
2023-03-24T07:41:24.121Z,19.44
2023-03-24T07:43:50.502Z,19.50
2023-03-24T07:46:16.931Z,19.82
2023-03-24T07:48:43.252Z,20.03
2023-03-24T07:51:09.610Z,20.15
2023-03-24T07:53:36.088Z,20.25
2023-03-24T07:56:02.446Z,20.48
2023-03-24T07:58:28.795Z,20.66
2023-03-24T08:00:55.173Z,20.84
2023-03-24T08:03:21.654Z,21.03
2023-03-24T08:05:48.361Z,21.22
2023-03-24T08:08:14.638Z,21.52
2023-03-24T08:10:41.008Z,21.78
2023-03-24T08:13:07.419Z,22.08
2023-03-24T08:15:34.874Z,22.27
2023-03-24T08:18:01.311Z,22.51
2023-03-24T08:20:27.577Z,22.72
2023-03-24T08:22:53.959Z,22.89
2023-03-24T08:25:20.344Z,23.03
2023-03-24T08:27:46.687Z,23.20
2023-03-24T08:30:13.049Z,23.37
2023-03-24T08:32:39.429Z,23.54
2023-03-24T08:35:05.866Z,23.68
2023-03-24T08:37:32.229Z,23.80
2023-03-24T08:39:58.661Z,23.99
2023-03-24T08:42:24.994Z,24.07
2023-03-24T08:44:51.355Z,24.18
2023-03-24T08:47:17.781Z,24.39
2023-03-24T08:49:44.162Z,24.49
2023-03-24T08:52:10.537Z,24.51
2023-03-24T08:54:36.902Z,24.49
2023-03-24T08:57:03.366Z,24.51
2023-03-24T08:59:29.690Z,24.40
2023-03-24T09:01:56.090Z,24.57
2023-03-24T09:04:22.483Z,24.78
2023-03-24T09:06:49.845Z,25.09
2023-03-24T09:09:16.161Z,25.41
2023-03-24T09:11:42.574Z,25.67
2023-03-24T09:14:08.944Z,25.93
2023-03-24T09:16:35.363Z,26.13
2023-03-24T09:19:01.794Z,26.31
2023-03-24T09:21:28.138Z,26.46
2023-03-24T09:23:54.473Z,26.57
2023-03-24T09:26:23.393Z,26.76
2023-03-24T09:28:49.717Z,26.93
2023-03-24T09:31:16.136Z,27.08
2023-03-24T09:33:42.870Z,27.26
2023-03-24T09:36:09.283Z,27.41
2023-03-24T09:38:36.664Z,27.58
2023-03-24T09:41:03.381Z,27.77
2023-03-24T09:43:29.450Z,27.97
2023-03-24T09:45:55.804Z,28.12
2023-03-24T09:48:22.187Z,28.19
2023-03-24T09:50:48.593Z,28.29
2023-03-24T09:53:14.943Z,28.38
2023-03-24T09:55:41.631Z,28.34
2023-03-24T09:58:07.995Z,28.35
2023-03-24T10:00:34.553Z,28.50
2023-03-24T10:03:00.732Z,28.67
2023-03-24T10:05:27.040Z,28.87
2023-03-24T10:07:57.036Z,29.01
2023-03-24T10:10:23.791Z,29.09
2023-03-24T10:12:50.152Z,29.16
2023-03-24T10:15:24.346Z,29.21
2023-03-24T10:17:42.990Z,29.33
2023-03-24T10:20:09.318Z,29.48
2023-03-24T10:22:35.718Z,29.65
2023-03-24T10:25:02.128Z,29.79
2023-03-24T10:27:29.551Z,29.86
2023-03-24T10:29:55.934Z,29.98
2023-03-24T10:32:22.580Z,30.05
2023-03-24T10:34:48.811Z,30.00
2023-03-24T10:37:15.261Z,30.10
2023-03-24T10:39:45.004Z,30.18
2023-03-24T10:42:08.248Z,30.23
2023-03-24T10:44:34.609Z,30.31
2023-03-24T10:47:01.449Z,30.39
2023-03-24T10:49:30.280Z,30.49
2023-03-24T10:51:56.622Z,30.60
2023-03-24T10:54:23.051Z,30.68
2023-03-24T10:56:49.529Z,30.70
2023-03-24T10:59:15.872Z,30.43
2023-03-24T11:01:42.243Z,30.30
2023-03-24T11:04:08.592Z,30.38
2023-03-24T11:06:37.089Z,30.53
2023-03-24T11:09:03.473Z,30.64
2023-03-24T11:11:29.799Z,30.72
2023-03-24T11:13:56.235Z,30.80
2023-03-24T11:16:22.701Z,30.85
2023-03-24T11:18:49.084Z,30.87
2023-03-24T11:21:15.431Z,30.93
2023-03-24T11:23:41.905Z,30.95
2023-03-24T11:26:08.271Z,30.83
2023-03-24T11:28:34.648Z,30.78
2023-03-24T11:31:01.136Z,30.77
2023-03-24T11:33:34.553Z,30.75
2023-03-24T11:36:05.043Z,30.72
2023-03-24T11:38:20.183Z,30.72
2023-03-24T11:40:46.523Z,30.77
2023-03-24T11:43:12.917Z,30.79
2023-03-24T11:45:39.281Z,30.57
2023-03-24T11:48:05.687Z,30.41
2023-03-24T11:50:32.026Z,30.43
2023-03-24T11:52:58.407Z,30.56
2023-03-24T11:55:24.913Z,30.63
2023-03-24T11:57:51.251Z,30.62
2023-03-24T12:00:17.945Z,30.64
2023-03-24T12:02:44.428Z,30.66
2023-03-24T12:05:10.656Z,30.68
2023-03-24T12:07:37.030Z,30.72
2023-03-24T12:10:03.386Z,30.76
2023-03-24T12:12:29.820Z,30.73
2023-03-24T12:14:56.209Z,30.53
2023-03-24T12:17:22.644Z,30.36
2023-03-24T12:19:48.936Z,30.24
2023-03-24T12:22:15.350Z,30.16
2023-03-24T12:24:41.740Z,30.18
2023-03-24T12:27:08.138Z,30.28
2023-03-24T12:29:34.521Z,30.44
2023-03-24T12:32:01.562Z,30.57
2023-03-24T12:34:27.949Z,30.60
2023-03-24T12:36:54.364Z,30.50
2023-03-24T12:39:20.729Z,30.46
2023-03-24T12:41:47.141Z,30.39
2023-03-24T12:44:13.494Z,30.51
2023-03-24T12:46:47.906Z,30.52
2023-03-24T12:49:06.274Z,30.48
2023-03-24T12:51:32.618Z,30.52
2023-03-24T12:53:59.014Z,30.50
2023-03-24T12:56:25.325Z,30.45
2023-03-24T12:58:51.736Z,30.33
2023-03-24T13:01:18.229Z,30.21
2023-03-24T13:03:44.471Z,30.05
2023-03-24T13:06:16.979Z,29.87
2023-03-24T13:08:37.220Z,29.71
2023-03-24T13:11:03.964Z,29.53
2023-03-24T13:13:30.288Z,29.39
2023-03-24T13:15:56.637Z,29.33
2023-03-24T13:18:23.242Z,29.31
2023-03-24T13:20:49.600Z,29.22
2023-03-24T13:23:15.991Z,29.15
2023-03-24T13:25:42.413Z,29.06
2023-03-24T13:28:08.822Z,28.95
2023-03-24T13:30:35.183Z,28.76
2023-03-24T13:33:01.844Z,28.60
2023-03-24T13:35:28.141Z,28.48
2023-03-24T13:37:54.757Z,28.34
2023-03-24T13:40:21.194Z,28.24
2023-03-24T13:42:47.522Z,28.14
2023-03-24T13:45:14.060Z,27.94
2023-03-24T13:47:40.453Z,27.82
2023-03-24T13:50:06.844Z,27.73
2023-03-24T13:52:33.360Z,27.70
2023-03-24T13:54:59.789Z,27.59
2023-03-24T13:57:26.154Z,27.49
2023-03-24T13:59:52.599Z,27.35
2023-03-24T14:02:19.253Z,27.27
2023-03-24T14:04:46.077Z,27.18
2023-03-24T14:07:12.409Z,27.07
2023-03-24T14:09:38.841Z,27.00
2023-03-24T14:12:06.317Z,26.89
2023-03-24T14:14:31.598Z,26.78
2023-03-24T14:16:57.971Z,26.66
2023-03-24T14:19:24.309Z,26.53
2023-03-24T14:21:50.761Z,26.52
2023-03-24T14:24:17.117Z,26.41
2023-03-24T14:26:43.484Z,26.44
2023-03-24T14:29:09.956Z,26.45
2023-03-24T14:31:36.374Z,26.51
2023-03-24T14:34:02.704Z,26.39
2023-03-24T14:36:29.066Z,26.24
2023-03-24T14:38:55.445Z,26.22
2023-03-24T14:41:21.781Z,26.20
2023-03-24T14:43:48.218Z,26.06
2023-03-24T14:46:14.627Z,25.96
2023-03-24T14:48:40.923Z,25.79
2023-03-24T14:51:08.393Z,25.67
2023-03-24T14:53:34.737Z,25.50
2023-03-24T14:56:01.070Z,25.46
2023-03-24T14:58:27.632Z,25.38
2023-03-24T15:01:06.353Z,25.35
2023-03-24T15:03:20.503Z,25.30
2023-03-24T15:05:46.773Z,25.17
2023-03-24T15:08:13.115Z,25.07
2023-03-24T15:10:39.536Z,25.02
2023-03-24T15:13:05.915Z,24.95
2023-03-24T15:15:32.281Z,24.85
2023-03-24T15:17:59.162Z,24.80
2023-03-24T15:20:25.383Z,24.72
2023-03-24T15:22:52.984Z,24.66
2023-03-24T15:25:19.254Z,24.61
2023-03-24T15:27:45.682Z,24.50
2023-03-24T15:30:13.277Z,24.45
2023-03-24T15:32:39.691Z,24.40
2023-03-24T15:35:06.056Z,24.33
2023-03-24T15:37:32.695Z,24.32
2023-03-24T15:40:09.106Z,24.32
2023-03-24T15:42:25.375Z,24.24
2023-03-24T15:44:51.741Z,24.13
2023-03-24T15:47:18.127Z,23.97
2023-03-24T15:49:44.559Z,23.85
2023-03-24T15:52:10.867Z,23.76
2023-03-24T15:54:37.196Z,23.67
2023-03-24T15:57:03.598Z,23.62
2023-03-24T15:59:30.045Z,23.61
2023-03-24T16:01:56.417Z,23.54
2023-03-24T16:04:22.901Z,23.50
2023-03-24T16:06:50.567Z,23.47
2023-03-24T16:09:15.533Z,23.38
2023-03-24T16:11:41.978Z,23.34
2023-03-24T16:14:08.343Z,23.23
2023-03-24T16:16:34.786Z,23.22
2023-03-24T16:19:01.243Z,23.19
2023-03-24T16:21:27.729Z,23.17
2023-03-24T16:23:53.954Z,23.10
2023-03-24T16:26:20.321Z,22.98
2023-03-24T16:28:46.678Z,22.85
2023-03-24T16:31:13.135Z,22.78
2023-03-24T16:33:39.434Z,22.71
2023-03-24T16:36:06.003Z,22.62
2023-03-24T16:38:32.326Z,22.56
2023-03-24T16:40:58.718Z,22.53
2023-03-24T16:43:25.102Z,22.50
2023-03-24T16:45:51.550Z,22.42
2023-03-24T16:48:17.811Z,22.41
2023-03-24T16:50:44.501Z,22.41
2023-03-24T16:53:10.845Z,22.41
2023-03-24T16:55:37.292Z,22.44
2023-03-24T16:58:03.681Z,22.37
2023-03-24T17:00:30.202Z,22.24
2023-03-24T17:02:56.843Z,22.12
2023-03-24T17:05:23.166Z,22.08
2023-03-24T17:07:49.565Z,22.02
2023-03-24T17:10:15.980Z,22.03
2023-03-24T17:12:42.359Z,22.01
2023-03-24T17:15:08.747Z,21.93
2023-03-24T17:17:35.182Z,21.85
2023-03-24T17:20:03.957Z,21.75
2023-03-24T17:22:27.922Z,21.72
2023-03-24T17:24:54.307Z,21.62
2023-03-24T17:27:20.735Z,21.52
2023-03-24T17:29:47.175Z,21.42
2023-03-24T17:32:13.552Z,21.38
2023-03-24T17:34:39.891Z,21.27
2023-03-24T17:37:06.288Z,21.19
2023-03-24T17:39:32.694Z,21.08
2023-03-24T17:41:59.082Z,21.03
2023-03-24T17:44:25.436Z,21.00
2023-03-24T17:46:51.802Z,20.92
2023-03-24T17:49:18.185Z,20.82
2023-03-24T17:51:44.551Z,20.68
2023-03-24T17:54:10.887Z,20.57
2023-03-24T17:56:37.298Z,20.54
2023-03-24T17:59:03.635Z,20.45
2023-03-24T18:01:30.265Z,20.35
2023-03-24T18:03:56.433Z,20.26
2023-03-24T18:06:22.841Z,20.21
2023-03-24T18:08:49.215Z,20.12
2023-03-24T18:11:15.652Z,20.02
2023-03-24T18:13:42.077Z,19.95
2023-03-24T18:16:19.824Z,19.92
2023-03-24T18:18:34.776Z,19.86
2023-03-24T18:21:01.197Z,19.81
2023-03-24T18:23:27.559Z,19.80
2023-03-24T18:25:53.938Z,19.76
2023-03-24T18:28:20.266Z,19.70
2023-03-24T18:30:46.718Z,19.64
2023-03-24T18:33:13.008Z,19.60
2023-03-24T18:35:39.474Z,19.58
2023-03-24T18:38:06.081Z,19.52
2023-03-24T18:40:32.475Z,19.43
2023-03-24T18:42:58.802Z,19.38
2023-03-24T18:45:25.206Z,19.32
2023-03-24T18:47:51.636Z,19.24
2023-03-24T18:50:18.194Z,19.20
2023-03-24T18:52:44.463Z,19.18
2023-03-24T18:55:10.812Z,19.19
2023-03-24T18:57:37.172Z,19.07
2023-03-24T19:00:03.534Z,19.03
2023-03-24T19:02:29.983Z,19.01
2023-03-24T19:04:56.249Z,18.97
2023-03-24T19:07:22.623Z,18.93
2023-03-24T19:09:49.023Z,18.86
2023-03-24T19:12:15.387Z,18.80
2023-03-24T19:14:41.902Z,18.72
2023-03-24T19:17:08.322Z,18.68
2023-03-24T19:19:34.620Z,18.66
2023-03-24T19:22:01.020Z,18.57
2023-03-24T19:24:27.400Z,18.53
2023-03-24T19:26:53.743Z,18.50
2023-03-24T19:29:20.238Z,18.39
2023-03-24T19:31:46.563Z,18.32
2023-03-24T19:34:13.003Z,18.35
2023-03-24T19:36:39.403Z,18.33
2023-03-24T19:39:05.845Z,18.25
2023-03-24T19:41:32.201Z,18.24
2023-03-24T19:43:58.581Z,18.18
2023-03-24T19:46:25.194Z,18.11
2023-03-24T19:48:54.477Z,18.00
2023-03-24T19:51:20.764Z,18.04
2023-03-24T19:53:47.125Z,18.05
2023-03-24T19:56:13.494Z,18.00
2023-03-24T19:58:40.371Z,17.98
2023-03-24T20:01:06.676Z,17.93
2023-03-24T20:03:33.126Z,17.88
2023-03-24T20:05:59.461Z,17.86
2023-03-24T20:08:25.899Z,17.87
2023-03-24T20:10:52.206Z,17.82
2023-03-24T20:13:18.618Z,17.77
2023-03-24T20:15:45.029Z,17.77
2023-03-24T20:18:11.303Z,17.71
2023-03-24T20:20:37.688Z,17.71
2023-03-24T20:23:04.098Z,17.64
2023-03-24T20:25:30.449Z,17.61
2023-03-24T20:27:56.810Z,17.54
2023-03-24T20:30:23.135Z,17.44
2023-03-24T20:32:49.561Z,17.37
2023-03-24T20:35:16.201Z,17.37
2023-03-24T20:37:42.687Z,17.35
2023-03-24T20:40:09.011Z,17.37
2023-03-24T20:42:35.469Z,17.39
2023-03-24T20:45:01.818Z,17.30
2023-03-24T20:47:28.205Z,17.17
2023-03-24T20:49:54.557Z,17.08
2023-03-24T20:52:20.899Z,16.98
2023-03-24T20:54:47.218Z,16.90
2023-03-24T20:57:13.862Z,16.92
2023-03-24T20:59:40.186Z,16.88
2023-03-24T21:02:06.657Z,16.84
2023-03-24T21:04:32.940Z,16.76
2023-03-24T21:06:59.371Z,16.70
2023-03-24T21:09:28.796Z,16.66
2023-03-24T21:11:55.231Z,16.58
2023-03-24T21:14:21.592Z,16.54
2023-03-24T21:16:48.052Z,16.48
2023-03-24T21:19:14.325Z,16.40
2023-03-24T21:21:40.686Z,16.34
2023-03-24T21:24:07.058Z,16.33
2023-03-24T21:26:33.449Z,16.31
2023-03-24T21:28:59.857Z,16.26
2023-03-24T21:31:26.274Z,16.27
2023-03-24T21:33:52.659Z,16.32
2023-03-24T21:36:19.074Z,16.29
2023-03-24T21:38:45.385Z,16.22
2023-03-24T21:41:11.747Z,16.16
2023-03-24T21:43:38.099Z,16.16
2023-03-24T21:46:04.437Z,16.13
2023-03-24T21:48:31.004Z,16.14
2023-03-24T21:50:57.327Z,16.12
2023-03-24T21:53:23.665Z,16.08
2023-03-24T21:55:50.240Z,16.03
2023-03-24T21:58:16.364Z,15.99
2023-03-24T22:00:42.706Z,15.99
2023-03-24T22:03:09.210Z,15.93
2023-03-24T22:05:35.449Z,15.88
2023-03-24T22:08:01.772Z,15.80
2023-03-24T22:10:28.179Z,15.76
2023-03-24T22:12:54.552Z,15.86
2023-03-24T22:15:20.944Z,15.84
2023-03-24T22:17:47.279Z,15.76
2023-03-24T22:20:13.724Z,15.67
2023-03-24T22:22:40.058Z,15.60
2023-03-24T22:25:06.649Z,15.52
2023-03-24T22:27:32.987Z,15.44
2023-03-24T22:29:59.354Z,15.38
2023-03-24T22:32:25.822Z,15.33
2023-03-24T22:34:52.155Z,15.28
2023-03-24T22:37:18.498Z,15.25
2023-03-24T22:39:44.865Z,15.21
2023-03-24T22:42:11.194Z,15.17
2023-03-24T22:44:37.540Z,15.13
2023-03-24T22:47:03.933Z,15.11
2023-03-24T22:49:30.273Z,15.10
2023-03-24T22:51:56.644Z,15.06
2023-03-24T22:54:23.016Z,15.05
2023-03-24T22:56:49.442Z,15.02
2023-03-24T22:59:15.818Z,15.01
2023-03-24T23:01:42.181Z,14.99
2023-03-24T23:04:08.809Z,14.97
2023-03-24T23:06:35.156Z,14.94
2023-03-24T23:09:01.565Z,14.92
2023-03-24T23:11:27.924Z,14.90
2023-03-24T23:13:54.304Z,14.88
2023-03-24T23:16:20.673Z,14.86
2023-03-24T23:18:46.981Z,14.84
2023-03-24T23:21:13.295Z,14.81
2023-03-24T23:23:39.654Z,14.79
2023-03-24T23:26:05.980Z,14.76
2023-03-24T23:28:32.363Z,14.75
2023-03-24T23:30:58.686Z,14.73
2023-03-24T23:33:25.111Z,14.72
2023-03-24T23:35:51.629Z,14.69
2023-03-24T23:38:17.802Z,14.68
2023-03-24T23:40:44.181Z,14.68
2023-03-24T23:43:10.509Z,14.67
2023-03-24T23:45:36.944Z,14.66
2023-03-24T23:48:03.295Z,14.64
2023-03-24T23:50:29.639Z,14.63
2023-03-24T23:52:56.001Z,14.60
2023-03-24T23:55:22.331Z,14.60
2023-03-24T23:57:48.759Z,14.58
